sensor_id;sensor_type;location;lat;lon;timestamp;P1;durP1;ratioP1;P2;durP2;ratioP2
58137;SDS011;43955;47.362;18.930;2023-04-29T00:00:19;11.57;;;7.18;;
58137;SDS011;43955;47.362;18.930;2023-04-29T00:02:47;9.20;;;5.95;;
58137;SDS011;43955;47.362;18.930;2023-04-29T00:05:15;13.25;;;7.10;;
58137;SDS011;43955;47.362;18.930;2023-04-29T00:07:42;10.77;;;6.20;;
58137;SDS011;43955;47.362;18.930;2023-04-29T00:10:10;10.93;;;6.43;;
58137;SDS011;43955;47.362;18.930;2023-04-29T00:12:40;12.52;;;6.40;;
58137;SDS011;43955;47.362;18.930;2023-04-29T00:15:08;14.07;;;6.03;;
58137;SDS011;43955;47.362;18.930;2023-04-29T00:17:36;12.70;;;6.93;;
58137;SDS011;43955;47.362;18.930;2023-04-29T00:20:03;12.02;;;6.45;;
58137;SDS011;43955;47.362;18.930;2023-04-29T00:22:32;14.00;;;6.12;;
58137;SDS011;43955;47.362;18.930;2023-04-29T00:24:59;11.50;;;6.53;;
58137;SDS011;43955;47.362;18.930;2023-04-29T00:27:26;13.95;;;7.28;;
58137;SDS011;43955;47.362;18.930;2023-04-29T00:29:54;12.77;;;7.12;;
58137;SDS011;43955;47.362;18.930;2023-04-29T00:32:22;12.15;;;6.18;;
58137;SDS011;43955;47.362;18.930;2023-04-29T00:34:49;12.82;;;7.30;;
58137;SDS011;43955;47.362;18.930;2023-04-29T00:37:17;15.13;;;7.18;;
58137;SDS011;43955;47.362;18.930;2023-04-29T00:39:45;13.88;;;7.50;;
58137;SDS011;43955;47.362;18.930;2023-04-29T00:42:12;12.37;;;7.47;;
58137;SDS011;43955;47.362;18.930;2023-04-29T00:44:39;14.85;;;7.45;;
58137;SDS011;43955;47.362;18.930;2023-04-29T00:47:07;21.35;;;7.80;;
58137;SDS011;43955;47.362;18.930;2023-04-29T00:49:37;12.52;;;7.15;;
58137;SDS011;43955;47.362;18.930;2023-04-29T00:52:05;17.20;;;7.43;;
58137;SDS011;43955;47.362;18.930;2023-04-29T00:54:35;14.65;;;7.50;;
58137;SDS011;43955;47.362;18.930;2023-04-29T00:57:03;20.37;;;8.57;;
58137;SDS011;43955;47.362;18.930;2023-04-29T00:59:32;18.17;;;7.93;;
58137;SDS011;43955;47.362;18.930;2023-04-29T01:02:01;17.77;;;8.05;;
58137;SDS011;43955;47.362;18.930;2023-04-29T01:04:29;16.12;;;8.13;;
58137;SDS011;43955;47.362;18.930;2023-04-29T01:20:47;18.50;;;7.82;;
58137;SDS011;43955;47.362;18.930;2023-04-29T01:23:14;22.25;;;9.00;;
58137;SDS011;43955;47.362;18.930;2023-04-29T01:25:41;17.60;;;7.35;;
58137;SDS011;43955;47.362;18.930;2023-04-29T01:28:13;18.83;;;8.25;;
58137;SDS011;43955;47.362;18.930;2023-04-29T01:31:16;18.42;;;8.77;;
58137;SDS011;43955;47.362;18.930;2023-04-29T01:34:21;19.35;;;8.90;;
58137;SDS011;43955;47.362;18.930;2023-04-29T01:37:01;21.27;;;9.20;;
58137;SDS011;43955;47.362;18.930;2023-04-29T01:39:36;23.25;;;9.48;;
58137;SDS011;43955;47.362;18.930;2023-04-29T01:44:51;22.83;;;9.80;;
58137;SDS011;43955;47.362;18.930;2023-04-29T01:47:20;22.08;;;9.18;;
58137;SDS011;43955;47.362;18.930;2023-04-29T01:49:48;20.10;;;9.85;;
58137;SDS011;43955;47.362;18.930;2023-04-29T01:52:16;22.25;;;9.18;;
58137;SDS011;43955;47.362;18.930;2023-04-29T01:54:43;21.02;;;8.40;;
58137;SDS011;43955;47.362;18.930;2023-04-29T01:57:11;29.02;;;10.30;;
58137;SDS011;43955;47.362;18.930;2023-04-29T01:59:39;23.58;;;9.40;;
58137;SDS011;43955;47.362;18.930;2023-04-29T02:02:07;22.73;;;10.07;;
58137;SDS011;43955;47.362;18.930;2023-04-29T02:04:37;27.58;;;9.95;;
58137;SDS011;43955;47.362;18.930;2023-04-29T02:07:04;24.35;;;10.25;;
58137;SDS011;43955;47.362;18.930;2023-04-29T02:09:31;22.35;;;10.57;;
58137;SDS011;43955;47.362;18.930;2023-04-29T02:11:59;25.02;;;9.50;;
58137;SDS011;43955;47.362;18.930;2023-04-29T02:14:29;23.33;;;9.40;;
58137;SDS011;43955;47.362;18.930;2023-04-29T02:16:57;19.98;;;9.23;;
58137;SDS011;43955;47.362;18.930;2023-04-29T02:19:25;20.80;;;9.27;;
58137;SDS011;43955;47.362;18.930;2023-04-29T02:21:53;23.35;;;9.25;;
58137;SDS011;43955;47.362;18.930;2023-04-29T02:24:20;24.60;;;10.05;;
58137;SDS011;43955;47.362;18.930;2023-04-29T02:26:48;23.17;;;9.70;;
58137;SDS011;43955;47.362;18.930;2023-04-29T02:29:15;22.52;;;9.68;;
58137;SDS011;43955;47.362;18.930;2023-04-29T02:31:43;19.48;;;8.73;;
58137;SDS011;43955;47.362;18.930;2023-04-29T02:34:11;20.88;;;9.63;;
58137;SDS011;43955;47.362;18.930;2023-04-29T02:36:38;20.62;;;8.70;;
58137;SDS011;43955;47.362;18.930;2023-04-29T02:39:05;19.45;;;9.00;;
58137;SDS011;43955;47.362;18.930;2023-04-29T02:41:33;19.67;;;8.98;;
58137;SDS011;43955;47.362;18.930;2023-04-29T02:44:00;18.75;;;8.35;;
58137;SDS011;43955;47.362;18.930;2023-04-29T02:46:28;14.82;;;7.20;;
58137;SDS011;43955;47.362;18.930;2023-04-29T02:48:55;11.32;;;5.75;;
58137;SDS011;43955;47.362;18.930;2023-04-29T02:51:23;12.80;;;5.35;;
58137;SDS011;43955;47.362;18.930;2023-04-29T02:53:50;12.90;;;5.78;;
58137;SDS011;43955;47.362;18.930;2023-04-29T02:56:18;13.50;;;5.57;;
58137;SDS011;43955;47.362;18.930;2023-04-29T02:58:45;13.13;;;5.43;;
58137;SDS011;43955;47.362;18.930;2023-04-29T03:01:13;9.23;;;4.95;;
58137;SDS011;43955;47.362;18.930;2023-04-29T03:03:40;8.45;;;4.95;;
58137;SDS011;43955;47.362;18.930;2023-04-29T03:06:08;10.73;;;5.15;;
58137;SDS011;43955;47.362;18.930;2023-04-29T03:08:35;10.50;;;5.72;;
58137;SDS011;43955;47.362;18.930;2023-04-29T03:11:03;11.30;;;4.30;;
58137;SDS011;43955;47.362;18.930;2023-04-29T03:13:30;7.32;;;4.47;;
58137;SDS011;43955;47.362;18.930;2023-04-29T03:15:57;10.25;;;3.85;;
58137;SDS011;43955;47.362;18.930;2023-04-29T03:18:26;8.07;;;4.05;;
58137;SDS011;43955;47.362;18.930;2023-04-29T03:20:54;9.18;;;3.95;;
58137;SDS011;43955;47.362;18.930;2023-04-29T03:23:21;7.87;;;3.25;;
58137;SDS011;43955;47.362;18.930;2023-04-29T03:25:48;6.90;;;3.50;;
58137;SDS011;43955;47.362;18.930;2023-04-29T03:28:16;8.10;;;3.55;;
58137;SDS011;43955;47.362;18.930;2023-04-29T03:30:43;6.40;;;3.55;;
58137;SDS011;43955;47.362;18.930;2023-04-29T03:33:11;8.00;;;4.12;;
58137;SDS011;43955;47.362;18.930;2023-04-29T03:35:38;6.25;;;3.55;;
58137;SDS011;43955;47.362;18.930;2023-04-29T03:38:08;8.50;;;4.22;;
58137;SDS011;43955;47.362;18.930;2023-04-29T03:40:36;6.40;;;3.97;;
58137;SDS011;43955;47.362;18.930;2023-04-29T03:43:04;10.35;;;4.68;;
58137;SDS011;43955;47.362;18.930;2023-04-29T03:45:33;9.57;;;3.90;;
58137;SDS011;43955;47.362;18.930;2023-04-29T03:48:01;6.12;;;3.90;;
58137;SDS011;43955;47.362;18.930;2023-04-29T03:50:29;7.07;;;4.72;;
58137;SDS011;43955;47.362;18.930;2023-04-29T03:52:57;10.20;;;4.43;;
58137;SDS011;43955;47.362;18.930;2023-04-29T03:55:25;5.62;;;3.65;;
58137;SDS011;43955;47.362;18.930;2023-04-29T03:57:53;7.00;;;3.47;;
58137;SDS011;43955;47.362;18.930;2023-04-29T04:00:20;7.93;;;3.90;;
58137;SDS011;43955;47.362;18.930;2023-04-29T04:02:49;6.00;;;3.60;;
58137;SDS011;43955;47.362;18.930;2023-04-29T04:05:16;10.15;;;3.37;;
58137;SDS011;43955;47.362;18.930;2023-04-29T04:07:47;6.82;;;3.67;;
58137;SDS011;43955;47.362;18.930;2023-04-29T04:10:16;6.47;;;4.15;;
58137;SDS011;43955;47.362;18.930;2023-04-29T04:12:44;8.90;;;3.72;;
58137;SDS011;43955;47.362;18.930;2023-04-29T04:15:13;9.95;;;4.60;;
58137;SDS011;43955;47.362;18.930;2023-04-29T04:17:41;6.25;;;3.58;;
58137;SDS011;43955;47.362;18.930;2023-04-29T04:20:08;7.47;;;4.00;;
58137;SDS011;43955;47.362;18.930;2023-04-29T04:22:36;8.95;;;4.90;;
58137;SDS011;43955;47.362;18.930;2023-04-29T04:25:05;9.90;;;4.00;;
58137;SDS011;43955;47.362;18.930;2023-04-29T04:27:34;6.05;;;3.53;;
58137;SDS011;43955;47.362;18.930;2023-04-29T04:30:02;7.47;;;3.58;;
58137;SDS011;43955;47.362;18.930;2023-04-29T04:32:30;24.73;;;5.00;;
58137;SDS011;43955;47.362;18.930;2023-04-29T04:34:58;24.25;;;5.00;;
58137;SDS011;43955;47.362;18.930;2023-04-29T04:37:25;32.75;;;5.75;;
58137;SDS011;43955;47.362;18.930;2023-04-29T04:39:53;6.75;;;4.03;;
58137;SDS011;43955;47.362;18.930;2023-04-29T04:42:21;8.77;;;4.47;;
58137;SDS011;43955;47.362;18.930;2023-04-29T04:44:49;7.18;;;4.22;;
58137;SDS011;43955;47.362;18.930;2023-04-29T04:47:18;8.80;;;4.62;;
58137;SDS011;43955;47.362;18.930;2023-04-29T04:49:48;6.60;;;4.70;;
58137;SDS011;43955;47.362;18.930;2023-04-29T04:52:21;9.05;;;4.78;;
58137;SDS011;43955;47.362;18.930;2023-04-29T04:54:48;8.32;;;4.40;;
58137;SDS011;43955;47.362;18.930;2023-04-29T04:57:16;10.23;;;5.05;;
58137;SDS011;43955;47.362;18.930;2023-04-29T04:59:44;9.32;;;4.95;;
58137;SDS011;43955;47.362;18.930;2023-04-29T05:02:11;9.73;;;5.25;;
58137;SDS011;43955;47.362;18.930;2023-04-29T05:04:39;10.60;;;6.03;;
58137;SDS011;43955;47.362;18.930;2023-04-29T05:07:07;18.27;;;6.00;;
58137;SDS011;43955;47.362;18.930;2023-04-29T05:09:36;12.27;;;5.40;;
58137;SDS011;43955;47.362;18.930;2023-04-29T05:12:03;6.80;;;5.20;;
58137;SDS011;43955;47.362;18.930;2023-04-29T05:14:31;11.32;;;5.12;;
58137;SDS011;43955;47.362;18.930;2023-04-29T05:16:58;10.73;;;5.30;;
58137;SDS011;43955;47.362;18.930;2023-04-29T05:19:26;11.98;;;5.40;;
58137;SDS011;43955;47.362;18.930;2023-04-29T05:21:54;10.38;;;5.60;;
58137;SDS011;43955;47.362;18.930;2023-04-29T05:24:22;10.57;;;5.32;;
58137;SDS011;43955;47.362;18.930;2023-04-29T05:26:49;12.27;;;5.10;;
58137;SDS011;43955;47.362;18.930;2023-04-29T05:29:19;15.77;;;4.78;;
58137;SDS011;43955;47.362;18.930;2023-04-29T05:31:48;19.37;;;5.40;;
58137;SDS011;43955;47.362;18.930;2023-04-29T05:34:17;10.98;;;5.05;;
58137;SDS011;43955;47.362;18.930;2023-04-29T05:36:44;14.10;;;5.00;;
58137;SDS011;43955;47.362;18.930;2023-04-29T05:39:12;9.50;;;5.07;;
58137;SDS011;43955;47.362;18.930;2023-04-29T05:41:39;10.05;;;4.50;;
58137;SDS011;43955;47.362;18.930;2023-04-29T05:44:08;8.77;;;4.97;;
58137;SDS011;43955;47.362;18.930;2023-04-29T05:46:36;10.10;;;5.00;;
58137;SDS011;43955;47.362;18.930;2023-04-29T05:49:03;15.27;;;5.35;;
58137;SDS011;43955;47.362;18.930;2023-04-29T05:51:31;20.50;;;5.85;;
58137;SDS011;43955;47.362;18.930;2023-04-29T05:53:58;19.50;;;5.15;;
58137;SDS011;43955;47.362;18.930;2023-04-29T05:56:26;13.95;;;5.12;;
58137;SDS011;43955;47.362;18.930;2023-04-29T05:58:54;8.65;;;4.28;;
58137;SDS011;43955;47.362;18.930;2023-04-29T06:01:22;9.20;;;4.75;;
58137;SDS011;43955;47.362;18.930;2023-04-29T06:03:49;18.77;;;5.80;;
58137;SDS011;43955;47.362;18.930;2023-04-29T06:06:20;7.35;;;5.20;;
58137;SDS011;43955;47.362;18.930;2023-04-29T06:08:47;10.82;;;4.85;;
58137;SDS011;43955;47.362;18.930;2023-04-29T06:11:15;14.63;;;5.18;;
58137;SDS011;43955;47.362;18.930;2023-04-29T06:13:42;7.10;;;4.62;;
58137;SDS011;43955;47.362;18.930;2023-04-29T06:16:10;6.32;;;3.87;;
58137;SDS011;43955;47.362;18.930;2023-04-29T06:18:38;8.15;;;4.57;;
58137;SDS011;43955;47.362;18.930;2023-04-29T06:21:05;11.05;;;5.00;;
58137;SDS011;43955;47.362;18.930;2023-04-29T06:23:32;6.97;;;4.43;;
58137;SDS011;43955;47.362;18.930;2023-04-29T06:26:01;8.07;;;4.50;;
58137;SDS011;43955;47.362;18.930;2023-04-29T06:28:28;9.73;;;5.20;;
58137;SDS011;43955;47.362;18.930;2023-04-29T06:30:55;8.25;;;4.68;;
58137;SDS011;43955;47.362;18.930;2023-04-29T06:33:23;15.50;;;6.57;;
58137;SDS011;43955;47.362;18.930;2023-04-29T06:35:50;13.70;;;4.85;;
58137;SDS011;43955;47.362;18.930;2023-04-29T06:38:18;10.27;;;5.53;;
58137;SDS011;43955;47.362;18.930;2023-04-29T06:40:46;15.02;;;4.78;;
58137;SDS011;43955;47.362;18.930;2023-04-29T06:43:13;8.63;;;4.95;;
58137;SDS011;43955;47.362;18.930;2023-04-29T06:45:44;10.63;;;5.28;;
58137;SDS011;43955;47.362;18.930;2023-04-29T06:48:15;12.25;;;5.03;;
58137;SDS011;43955;47.362;18.930;2023-04-29T06:50:49;9.73;;;4.60;;
58137;SDS011;43955;47.362;18.930;2023-04-29T06:53:17;32.00;;;6.68;;
58137;SDS011;43955;47.362;18.930;2023-04-29T06:55:45;13.35;;;5.37;;
58137;SDS011;43955;47.362;18.930;2023-04-29T06:58:12;43.92;;;8.63;;
58137;SDS011;43955;47.362;18.930;2023-04-29T07:00:44;26.85;;;6.60;;
58137;SDS011;43955;47.362;18.930;2023-04-29T07:03:15;8.38;;;5.20;;
58137;SDS011;43955;47.362;18.930;2023-04-29T07:05:44;10.65;;;4.93;;
58137;SDS011;43955;47.362;18.930;2023-04-29T07:08:12;30.08;;;6.97;;
58137;SDS011;43955;47.362;18.930;2023-04-29T07:10:39;8.68;;;4.75;;
58137;SDS011;43955;47.362;18.930;2023-04-29T07:13:10;15.38;;;6.30;;
58137;SDS011;43955;47.362;18.930;2023-04-29T07:15:37;8.70;;;5.15;;
58137;SDS011;43955;47.362;18.930;2023-04-29T07:18:04;7.15;;;4.00;;
58137;SDS011;43955;47.362;18.930;2023-04-29T07:20:35;7.45;;;4.10;;
58137;SDS011;43955;47.362;18.930;2023-04-29T07:23:03;8.40;;;4.40;;
58137;SDS011;43955;47.362;18.930;2023-04-29T07:25:30;9.88;;;5.47;;
58137;SDS011;43955;47.362;18.930;2023-04-29T07:27:58;11.73;;;4.72;;
58137;SDS011;43955;47.362;18.930;2023-04-29T07:30:25;13.73;;;5.05;;
58137;SDS011;43955;47.362;18.930;2023-04-29T07:32:52;7.57;;;4.37;;
58137;SDS011;43955;47.362;18.930;2023-04-29T07:35:20;11.00;;;4.90;;
58137;SDS011;43955;47.362;18.930;2023-04-29T07:37:48;53.30;;;8.68;;
58137;SDS011;43955;47.362;18.930;2023-04-29T07:40:15;7.78;;;4.03;;
58137;SDS011;43955;47.362;18.930;2023-04-29T07:42:43;6.32;;;3.83;;
58137;SDS011;43955;47.362;18.930;2023-04-29T07:45:10;17.62;;;5.18;;
58137;SDS011;43955;47.362;18.930;2023-04-29T07:47:39;8.30;;;4.68;;
58137;SDS011;43955;47.362;18.930;2023-04-29T07:50:07;5.28;;;4.00;;
58137;SDS011;43955;47.362;18.930;2023-04-29T07:52:35;7.40;;;4.22;;
58137;SDS011;43955;47.362;18.930;2023-04-29T07:55:02;12.65;;;4.05;;
58137;SDS011;43955;47.362;18.930;2023-04-29T07:57:30;8.45;;;4.72;;
58137;SDS011;43955;47.362;18.930;2023-04-29T07:59:57;6.05;;;3.47;;
58137;SDS011;43955;47.362;18.930;2023-04-29T08:02:24;10.95;;;4.37;;
58137;SDS011;43955;47.362;18.930;2023-04-29T08:04:52;7.12;;;3.78;;
58137;SDS011;43955;47.362;18.930;2023-04-29T08:07:22;7.28;;;4.60;;
58137;SDS011;43955;47.362;18.930;2023-04-29T08:09:50;8.90;;;4.57;;
58137;SDS011;43955;47.362;18.930;2023-04-29T08:12:17;9.30;;;4.03;;
58137;SDS011;43955;47.362;18.930;2023-04-29T08:14:45;14.77;;;4.57;;
58137;SDS011;43955;47.362;18.930;2023-04-29T08:17:12;7.22;;;3.60;;
58137;SDS011;43955;47.362;18.930;2023-04-29T08:19:39;11.20;;;3.92;;
58137;SDS011;43955;47.362;18.930;2023-04-29T08:22:07;5.22;;;3.60;;
58137;SDS011;43955;47.362;18.930;2023-04-29T08:24:37;5.18;;;3.58;;
58137;SDS011;43955;47.362;18.930;2023-04-29T08:27:04;8.43;;;4.47;;
58137;SDS011;43955;47.362;18.930;2023-04-29T08:29:31;11.80;;;3.47;;
58137;SDS011;43955;47.362;18.930;2023-04-29T08:31:59;12.20;;;6.62;;
58137;SDS011;43955;47.362;18.930;2023-04-29T08:34:27;12.50;;;4.85;;
58137;SDS011;43955;47.362;18.930;2023-04-29T08:36:55;7.53;;;3.78;;
58137;SDS011;43955;47.362;18.930;2023-04-29T08:39:23;15.73;;;4.03;;
58137;SDS011;43955;47.362;18.930;2023-04-29T08:41:51;5.28;;;3.50;;
58137;SDS011;43955;47.362;18.930;2023-04-29T08:44:20;5.30;;;3.85;;
58137;SDS011;43955;47.362;18.930;2023-04-29T08:46:47;7.32;;;3.90;;
58137;SDS011;43955;47.362;18.930;2023-04-29T08:49:15;6.70;;;3.35;;
58137;SDS011;43955;47.362;18.930;2023-04-29T08:51:42;10.60;;;5.82;;
58137;SDS011;43955;47.362;18.930;2023-04-29T08:54:10;41.47;;;8.48;;
58137;SDS011;43955;47.362;18.930;2023-04-29T08:56:38;16.70;;;4.50;;
58137;SDS011;43955;47.362;18.930;2023-04-29T08:59:05;6.20;;;3.12;;
58137;SDS011;43955;47.362;18.930;2023-04-29T09:01:34;13.93;;;3.80;;
58137;SDS011;43955;47.362;18.930;2023-04-29T09:07:08;9.82;;;3.47;;
58137;SDS011;43955;47.362;18.930;2023-04-29T09:09:38;8.13;;;2.80;;
58137;SDS011;43955;47.362;18.930;2023-04-29T09:12:06;21.52;;;5.18;;
58137;SDS011;43955;47.362;18.930;2023-04-29T09:14:33;9.75;;;4.43;;
58137;SDS011;43955;47.362;18.930;2023-04-29T09:17:02;6.57;;;3.37;;
58137;SDS011;43955;47.362;18.930;2023-04-29T09:19:30;7.28;;;3.28;;
58137;SDS011;43955;47.362;18.930;2023-04-29T09:21:59;12.75;;;3.47;;
58137;SDS011;43955;47.362;18.930;2023-04-29T09:24:28;11.27;;;3.92;;
58137;SDS011;43955;47.362;18.930;2023-04-29T09:26:56;6.28;;;3.37;;
58137;SDS011;43955;47.362;18.930;2023-04-29T09:29:24;9.77;;;3.78;;
58137;SDS011;43955;47.362;18.930;2023-04-29T09:31:52;11.85;;;3.42;;
58137;SDS011;43955;47.362;18.930;2023-04-29T09:34:35;7.57;;;3.55;;
58137;SDS011;43955;47.362;18.930;2023-04-29T09:37:04;7.70;;;3.28;;
58137;SDS011;43955;47.362;18.930;2023-04-29T09:39:53;21.77;;;5.05;;
58137;SDS011;43955;47.362;18.930;2023-04-29T09:42:21;5.43;;;2.92;;
58137;SDS011;43955;47.362;18.930;2023-04-29T09:44:48;9.27;;;3.47;;
58137;SDS011;43955;47.362;18.930;2023-04-29T09:47:15;6.57;;;2.67;;
58137;SDS011;43955;47.362;18.930;2023-04-29T09:49:43;5.47;;;3.17;;
58137;SDS011;43955;47.362;18.930;2023-04-29T09:52:15;5.07;;;3.35;;
58137;SDS011;43955;47.362;18.930;2023-04-29T09:54:44;5.85;;;2.85;;
58137;SDS011;43955;47.362;18.930;2023-04-29T09:57:11;6.07;;;3.22;;
58137;SDS011;43955;47.362;18.930;2023-04-29T09:59:41;8.25;;;3.50;;
58137;SDS011;43955;47.362;18.930;2023-04-29T10:02:14;12.13;;;4.25;;
58137;SDS011;43955;47.362;18.930;2023-04-29T10:04:52;9.52;;;2.85;;
58137;SDS011;43955;47.362;18.930;2023-04-29T10:07:23;5.53;;;3.20;;
58137;SDS011;43955;47.362;18.930;2023-04-29T10:09:53;6.50;;;3.15;;
58137;SDS011;43955;47.362;18.930;2023-04-29T10:12:20;11.25;;;3.75;;
58137;SDS011;43955;47.362;18.930;2023-04-29T10:15:01;3.35;;;2.70;;
58137;SDS011;43955;47.362;18.930;2023-04-29T10:17:45;5.53;;;3.70;;
58137;SDS011;43955;47.362;18.930;2023-04-29T10:20:34;7.32;;;3.20;;
58137;SDS011;43955;47.362;18.930;2023-04-29T10:23:03;5.22;;;3.37;;
58137;SDS011;43955;47.362;18.930;2023-04-29T10:25:31;9.68;;;3.80;;
58137;SDS011;43955;47.362;18.930;2023-04-29T10:27:59;5.30;;;3.12;;
58137;SDS011;43955;47.362;18.930;2023-04-29T10:30:28;5.62;;;3.55;;
58137;SDS011;43955;47.362;18.930;2023-04-29T10:32:56;7.07;;;3.30;;
58137;SDS011;43955;47.362;18.930;2023-04-29T10:35:27;4.47;;;3.05;;
58137;SDS011;43955;47.362;18.930;2023-04-29T10:37:55;6.37;;;3.97;;
58137;SDS011;43955;47.362;18.930;2023-04-29T10:43:15;4.43;;;3.03;;
58137;SDS011;43955;47.362;18.930;2023-04-29T10:45:42;46.92;;;6.05;;
58137;SDS011;43955;47.362;18.930;2023-04-29T10:48:10;6.07;;;3.37;;
58137;SDS011;43955;47.362;18.930;2023-04-29T10:53:08;8.40;;;4.03;;
58137;SDS011;43955;47.362;18.930;2023-04-29T10:55:38;7.97;;;4.15;;
58137;SDS011;43955;47.362;18.930;2023-04-29T11:01:01;6.37;;;3.15;;
58137;SDS011;43955;47.362;18.930;2023-04-29T11:09:03;7.00;;;3.62;;
58137;SDS011;43955;47.362;18.930;2023-04-29T11:14:48;7.12;;;3.37;;
58137;SDS011;43955;47.362;18.930;2023-04-29T11:17:16;7.05;;;3.65;;
58137;SDS011;43955;47.362;18.930;2023-04-29T11:19:49;5.10;;;3.12;;
58137;SDS011;43955;47.362;18.930;2023-04-29T11:27:20;7.00;;;3.53;;
58137;SDS011;43955;47.362;18.930;2023-04-29T11:29:52;4.30;;;3.08;;
58137;SDS011;43955;47.362;18.930;2023-04-29T11:32:27;6.32;;;2.75;;
58137;SDS011;43955;47.362;18.930;2023-04-29T11:37:40;4.53;;;2.60;;
58137;SDS011;43955;47.362;18.930;2023-04-29T11:40:08;5.45;;;3.25;;
58137;SDS011;43955;47.362;18.930;2023-04-29T11:42:47;4.80;;;2.90;;
58137;SDS011;43955;47.362;18.930;2023-04-29T11:45:18;5.80;;;2.78;;
58137;SDS011;43955;47.362;18.930;2023-04-29T11:47:46;6.87;;;2.90;;
58137;SDS011;43955;47.362;18.930;2023-04-29T11:50:14;12.00;;;3.37;;
58137;SDS011;43955;47.362;18.930;2023-04-29T11:52:45;5.32;;;3.10;;
58137;SDS011;43955;47.362;18.930;2023-04-29T11:55:13;7.45;;;3.40;;
58137;SDS011;43955;47.362;18.930;2023-04-29T11:57:41;5.43;;;2.90;;
58137;SDS011;43955;47.362;18.930;2023-04-29T12:00:09;7.93;;;3.25;;
58137;SDS011;43955;47.362;18.930;2023-04-29T12:02:42;10.90;;;3.50;;
58137;SDS011;43955;47.362;18.930;2023-04-29T12:05:10;10.27;;;4.07;;
58137;SDS011;43955;47.362;18.930;2023-04-29T12:07:43;7.90;;;3.37;;
58137;SDS011;43955;47.362;18.930;2023-04-29T12:10:11;5.93;;;2.92;;
58137;SDS011;43955;47.362;18.930;2023-04-29T12:12:38;5.70;;;3.12;;
58137;SDS011;43955;47.362;18.930;2023-04-29T12:15:12;7.53;;;2.95;;
58137;SDS011;43955;47.362;18.930;2023-04-29T12:17:40;4.82;;;3.20;;
58137;SDS011;43955;47.362;18.930;2023-04-29T12:20:08;7.93;;;3.00;;
58137;SDS011;43955;47.362;18.930;2023-04-29T12:22:37;8.80;;;4.55;;
58137;SDS011;43955;47.362;18.930;2023-04-29T12:25:04;11.52;;;3.42;;
58137;SDS011;43955;47.362;18.930;2023-04-29T12:27:33;115.40;;;13.05;;
58137;SDS011;43955;47.362;18.930;2023-04-29T12:30:05;6.57;;;3.17;;
58137;SDS011;43955;47.362;18.930;2023-04-29T12:32:33;4.82;;;2.85;;
58137;SDS011;43955;47.362;18.930;2023-04-29T12:35:03;4.78;;;2.70;;
58137;SDS011;43955;47.362;18.930;2023-04-29T12:37:30;6.20;;;3.33;;
58137;SDS011;43955;47.362;18.930;2023-04-29T12:39:57;4.78;;;2.78;;
58137;SDS011;43955;47.362;18.930;2023-04-29T12:42:30;24.92;;;5.75;;
58137;SDS011;43955;47.362;18.930;2023-04-29T12:44:58;7.60;;;3.00;;
58137;SDS011;43955;47.362;18.930;2023-04-29T12:47:30;6.15;;;2.92;;
58137;SDS011;43955;47.362;18.930;2023-04-29T12:50:02;4.68;;;3.00;;
58137;SDS011;43955;47.362;18.930;2023-04-29T12:52:30;4.62;;;2.62;;
58137;SDS011;43955;47.362;18.930;2023-04-29T12:54:57;4.85;;;3.05;;
58137;SDS011;43955;47.362;18.930;2023-04-29T12:57:26;4.43;;;2.83;;
58137;SDS011;43955;47.362;18.930;2023-04-29T12:59:54;13.88;;;4.00;;
58137;SDS011;43955;47.362;18.930;2023-04-29T13:02:21;6.30;;;3.00;;
58137;SDS011;43955;47.362;18.930;2023-04-29T13:04:49;8.88;;;3.50;;
58137;SDS011;43955;47.362;18.930;2023-04-29T13:07:16;5.60;;;3.10;;
58137;SDS011;43955;47.362;18.930;2023-04-29T13:09:44;6.15;;;3.25;;
58137;SDS011;43955;47.362;18.930;2023-04-29T13:12:11;8.73;;;3.08;;
58137;SDS011;43955;47.362;18.930;2023-04-29T13:14:39;5.40;;;2.67;;
58137;SDS011;43955;47.362;18.930;2023-04-29T13:17:06;8.02;;;2.92;;
58137;SDS011;43955;47.362;18.930;2023-04-29T13:19:33;5.85;;;3.10;;
58137;SDS011;43955;47.362;18.930;2023-04-29T13:22:17;25.98;;;4.68;;
58137;SDS011;43955;47.362;18.930;2023-04-29T13:24:44;6.20;;;3.10;;
58137;SDS011;43955;47.362;18.930;2023-04-29T13:27:12;7.03;;;3.80;;
58137;SDS011;43955;47.362;18.930;2023-04-29T13:29:39;4.80;;;2.90;;
58137;SDS011;43955;47.362;18.930;2023-04-29T13:32:06;6.10;;;3.30;;
58137;SDS011;43955;47.362;18.930;2023-04-29T13:34:34;4.97;;;3.28;;
58137;SDS011;43955;47.362;18.930;2023-04-29T13:37:02;6.18;;;2.95;;
58137;SDS011;43955;47.362;18.930;2023-04-29T13:39:29;4.78;;;3.08;;
58137;SDS011;43955;47.362;18.930;2023-04-29T13:41:57;61.28;;;6.18;;
58137;SDS011;43955;47.362;18.930;2023-04-29T13:44:25;4.43;;;2.50;;
58137;SDS011;43955;47.362;18.930;2023-04-29T13:47:14;4.65;;;3.20;;
58137;SDS011;43955;47.362;18.930;2023-04-29T13:49:50;7.07;;;2.72;;
58137;SDS011;43955;47.362;18.930;2023-04-29T13:52:20;4.65;;;2.80;;
58137;SDS011;43955;47.362;18.930;2023-04-29T13:54:51;3.87;;;2.55;;
58137;SDS011;43955;47.362;18.930;2023-04-29T13:57:38;3.20;;;2.65;;
58137;SDS011;43955;47.362;18.930;2023-04-29T14:00:25;5.93;;;2.90;;
58137;SDS011;43955;47.362;18.930;2023-04-29T14:03:13;3.45;;;2.53;;
58137;SDS011;43955;47.362;18.930;2023-04-29T14:05:40;5.15;;;2.95;;
58137;SDS011;43955;47.362;18.930;2023-04-29T14:08:08;5.18;;;2.60;;
58137;SDS011;43955;47.362;18.930;2023-04-29T14:10:36;5.10;;;2.97;;
58137;SDS011;43955;47.362;18.930;2023-04-29T14:13:03;5.45;;;2.12;;
58137;SDS011;43955;47.362;18.930;2023-04-29T14:15:30;3.97;;;2.53;;
58137;SDS011;43955;47.362;18.930;2023-04-29T14:17:58;5.60;;;2.75;;
58137;SDS011;43955;47.362;18.930;2023-04-29T14:20:28;7.20;;;3.33;;
58137;SDS011;43955;47.362;18.930;2023-04-29T14:22:55;5.15;;;3.22;;
58137;SDS011;43955;47.362;18.930;2023-04-29T14:25:23;61.28;;;8.95;;
58137;SDS011;43955;47.362;18.930;2023-04-29T14:27:52;6.12;;;2.85;;
58137;SDS011;43955;47.362;18.930;2023-04-29T14:30:19;7.12;;;2.53;;
58137;SDS011;43955;47.362;18.930;2023-04-29T14:32:47;6.30;;;2.80;;
58137;SDS011;43955;47.362;18.930;2023-04-29T14:35:14;7.60;;;3.17;;
58137;SDS011;43955;47.362;18.930;2023-04-29T14:37:42;4.65;;;2.90;;
58137;SDS011;43955;47.362;18.930;2023-04-29T14:40:09;4.82;;;2.60;;
58137;SDS011;43955;47.362;18.930;2023-04-29T14:42:36;4.95;;;2.70;;
58137;SDS011;43955;47.362;18.930;2023-04-29T14:45:04;4.47;;;2.92;;
58137;SDS011;43955;47.362;18.930;2023-04-29T14:47:32;5.00;;;2.95;;
58137;SDS011;43955;47.362;18.930;2023-04-29T14:50:00;10.77;;;3.20;;
58137;SDS011;43955;47.362;18.930;2023-04-29T14:52:27;6.32;;;3.03;;
58137;SDS011;43955;47.362;18.930;2023-04-29T14:54:55;4.53;;;2.65;;
58137;SDS011;43955;47.362;18.930;2023-04-29T14:57:22;6.72;;;3.05;;
58137;SDS011;43955;47.362;18.930;2023-04-29T14:59:49;6.37;;;2.78;;
58137;SDS011;43955;47.362;18.930;2023-04-29T15:02:17;7.00;;;3.58;;
58137;SDS011;43955;47.362;18.930;2023-04-29T15:04:44;6.75;;;2.62;;
58137;SDS011;43955;47.362;18.930;2023-04-29T15:07:12;5.10;;;2.80;;
58137;SDS011;43955;47.362;18.930;2023-04-29T15:09:40;6.62;;;3.50;;
58137;SDS011;43955;47.362;18.930;2023-04-29T15:12:07;4.37;;;2.78;;
58137;SDS011;43955;47.362;18.930;2023-04-29T15:14:35;37.38;;;5.30;;
58137;SDS011;43955;47.362;18.930;2023-04-29T15:17:03;5.28;;;3.17;;
58137;SDS011;43955;47.362;18.930;2023-04-29T15:19:30;5.97;;;2.95;;
58137;SDS011;43955;47.362;18.930;2023-04-29T15:21:57;3.37;;;2.72;;